Upper Lake, CA (95485)

9:24 AM PST on November 23, 2014 (GMT -0800)
Upper Lake | Change Station
CLOSE
Current Station
Personal Weather Station
Location: Upper Lake, CA
Elevation: 1345 ft
Nearby Weather Stations

Elev 1345 ft 39.17 °N, 122.92 °W | Updated 16 seconds ago

Mostly Cloudy
Mostly Cloudy
41.4 °F
Feels Like 41 °F
N
0.2
Wind Variable Wind from East
Gusts 1.5 mph

Today
High -- | Low -- °F
--% Chance of Precip.
Yesterday
High -- | Low -- °F
Precip. -- in
7:03 AM 4:52 PM
New Moon, 2% visible
Pressure 30.38 in
Visibility 10.0 miles
Clouds Clear
Windchill 41 °F
Dew Point 41 °F
Humidity 100%
Rainfall 0.15 in
Snow Depth Not available.
UV 1 out of 12
Pollen 2.90 out of 12
Air Quality Not available.
Flu Activity Not available.
METAR KUKI 231656Z AUTO 00000KT 10SM CLR 07/05 A3038 RMK AO2 SLP285 T00670050

More Conditions Fewer Conditions

Pressure 30.38 in
Visibility 10.0 miles
Clouds Clear
Windchill 41 °F
Dew Point 41 °F
Humidity 100%
Rainfall 0.15 in
Snow Depth Not available.
UV 1 out of 12
Pollen 2.90 out of 12
Air Quality Not available.
Flu Activity Not available.
METAR KUKI 231656Z AUTO 00000KT 10SM CLR 07/05 A3038 RMK AO2 SLP285 T00670050

More Conditions Fewer Conditions

10-Day Weather Forecast

Almanac

Astronomy

Nov. 23, 2014 Rise Set
Actual Time
Civil Twilight
Nautical Twilight
Astronomical Twilight
Moon
Length of Visible Light
Length of Day
Tomorrow will be .
, % of the Moon is Illuminated

Today's Extremes

State Highs State Lows

Community

WunderPhotos

Upload Photos

1,773,110 photos uploaded!

WunderBlogs® & News

Nearby

Air Quality

  Air Quality AQ Index Pollutant
Not available.

Snow Depth

Station Depth Elevation

Earthquake Activity

City Distance Mag. Time & Date
Minimum magnitude displayed is 2.5.

Coastal Water Temperatures

Place Temperature

Nearby Weather Stations